createdAt,value
2022-12-31T00:02:03.024Z,0.82
2022-12-31T00:06:14.320Z,0.88
2022-12-31T00:10:16.957Z,0.82
2022-12-31T00:14:18.959Z,0.43
2022-12-31T00:18:20.982Z,0.60
2022-12-31T00:22:23.018Z,0.73
2022-12-31T00:26:27.983Z,0.60
2022-12-31T00:30:30.413Z,0.70
2022-12-31T00:34:33.453Z,0.88
2022-12-31T00:38:36.826Z,0.47
2022-12-31T00:42:38.820Z,0.30
2022-12-31T00:50:42.225Z,0.30
2022-12-31T00:54:44.401Z,0.30
2022-12-31T00:58:47.043Z,0.20
2022-12-31T01:02:49.576Z,0.40
2022-12-31T01:06:51.654Z,0.30
2022-12-31T01:11:12.280Z,0.30
2022-12-31T01:15:14.329Z,0.20
2022-12-31T01:19:23.092Z,0.20
2022-12-31T01:23:25.107Z,0.20
2022-12-31T01:27:27.146Z,0.20
2022-12-31T01:31:30.334Z,0.20
2022-12-31T01:35:35.457Z,0.10
2022-12-31T01:39:37.475Z,0.00
2022-12-31T01:44:00.936Z,0.10
2022-12-31T01:48:02.992Z,0.00
2022-12-31T01:52:05.056Z,0.10
2022-12-31T01:56:07.427Z,0.30
2022-12-31T02:00:10.108Z,0.10
2022-12-31T02:04:15.268Z,0.10
2022-12-31T02:08:18.043Z,0.10
2022-12-31T02:12:20.257Z,0.10
2022-12-31T02:16:44.127Z,0.00
2022-12-31T02:21:20.565Z,0.05
2022-12-31T02:25:28.648Z,0.10
2022-12-31T02:29:52.485Z,0.08
2022-12-31T02:34:13.599Z,0.10
2022-12-31T02:38:31.214Z,0.10
2022-12-31T02:46:48.319Z,0.10
2022-12-31T02:51:05.117Z,0.10
2022-12-31T02:55:29.051Z,0.10
2022-12-31T03:00:03.324Z,0.20
2022-12-31T03:04:24.072Z,0.20
2022-12-31T03:08:26.604Z,0.15
2022-12-31T03:12:46.958Z,0.10
2022-12-31T03:16:49.163Z,0.13
2022-12-31T03:21:09.918Z,0.25
2022-12-31T03:25:35.934Z,0.10
2022-12-31T03:29:37.996Z,0.20
2022-12-31T03:33:41.309Z,0.20
2022-12-31T03:37:43.610Z,0.20
2022-12-31T03:41:45.671Z,0.20
2022-12-31T03:45:51.298Z,0.20
2022-12-31T03:49:53.386Z,0.32
2022-12-31T03:53:55.420Z,0.40
2022-12-31T03:57:57.531Z,0.30
2022-12-31T04:01:59.671Z,0.20
2022-12-31T04:06:01.762Z,0.13
2022-12-31T04:10:05.828Z,0.20
2022-12-31T04:14:07.931Z,0.20
2022-12-31T04:18:10.035Z,0.28
2022-12-31T04:22:12.082Z,0.35
2022-12-31T04:26:14.102Z,0.25
2022-12-31T04:30:16.315Z,0.30
2022-12-31T04:34:18.346Z,0.40
2022-12-31T04:38:20.359Z,0.30
2022-12-31T04:42:22.494Z,0.32
2022-12-31T04:46:27.524Z,0.20
2022-12-31T04:50:29.533Z,0.28
2022-12-31T04:54:31.539Z,0.30
2022-12-31T04:58:34.334Z,0.40
2022-12-31T05:02:36.564Z,0.40
2022-12-31T05:06:38.722Z,0.30
2022-12-31T05:10:46.518Z,0.30
2022-12-31T05:14:48.505Z,0.30
2022-12-31T05:18:50.557Z,0.30
2022-12-31T05:22:52.642Z,0.50
2022-12-31T05:26:54.665Z,0.40
2022-12-31T05:30:56.829Z,0.40
2022-12-31T05:34:59.781Z,0.40
2022-12-31T05:39:02.442Z,0.60
2022-12-31T05:43:04.505Z,0.50
2022-12-31T05:47:06.529Z,0.40
2022-12-31T05:51:08.536Z,0.40
2022-12-31T05:55:11.539Z,0.50
2022-12-31T05:59:13.700Z,0.50
2022-12-31T06:03:15.963Z,0.40
2022-12-31T06:07:18.225Z,0.57
2022-12-31T06:11:20.314Z,0.88
2022-12-31T06:15:22.387Z,0.60
2022-12-31T06:19:24.531Z,0.50
2022-12-31T06:23:26.876Z,0.70
2022-12-31T06:27:28.906Z,0.47
2022-12-31T06:31:31.003Z,0.63
2022-12-31T06:35:33.098Z,0.60
2022-12-31T06:39:35.135Z,0.50
2022-12-31T06:43:38.597Z,0.60
2022-12-31T06:47:40.681Z,0.55
2022-12-31T06:51:42.710Z,0.65
2022-12-31T06:55:45.250Z,0.65
2022-12-31T06:59:47.525Z,0.55
2022-12-31T07:04:00.161Z,0.40
2022-12-31T07:08:14.600Z,0.50
2022-12-31T07:12:31.924Z,0.50
2022-12-31T07:17:08.355Z,0.55
2022-12-31T07:21:13.875Z,0.60
2022-12-31T07:25:17.637Z,0.40
2022-12-31T07:29:29.445Z,0.22
2022-12-31T07:33:49.229Z,0.47
2022-12-31T07:38:14.866Z,0.40
2022-12-31T07:42:27.526Z,0.40
2022-12-31T07:46:57.186Z,0.50
2022-12-31T07:50:59.601Z,0.30
2022-12-31T07:55:01.641Z,0.40
2022-12-31T07:59:32.604Z,0.40
2022-12-31T08:03:47.695Z,0.70
2022-12-31T08:08:11.031Z,0.52
2022-12-31T08:12:14.093Z,0.60
2022-12-31T08:16:16.667Z,0.40
2022-12-31T08:20:18.816Z,0.50
2022-12-31T08:24:36.163Z,0.70
2022-12-31T08:29:15.062Z,0.70
2022-12-31T08:33:26.019Z,0.50
2022-12-31T08:37:32.987Z,0.55
2022-12-31T08:41:53.437Z,0.68
2022-12-31T08:45:57.750Z,0.60
2022-12-31T08:50:00.135Z,0.68
2022-12-31T08:54:02.720Z,0.50
2022-12-31T08:58:08.452Z,0.50
2022-12-31T09:02:10.526Z,0.68
2022-12-31T09:06:22.571Z,0.50
2022-12-31T09:10:38.208Z,0.70
2022-12-31T09:14:50.083Z,0.60
2022-12-31T09:18:52.344Z,1.30
2022-12-31T09:22:55.726Z,0.57
2022-12-31T09:27:12.883Z,0.40
2022-12-31T09:31:21.860Z,0.90
2022-12-31T09:35:33.380Z,0.90
2022-12-31T09:39:46.242Z,0.60
2022-12-31T09:44:18.808Z,1.10
2022-12-31T09:48:57.055Z,1.50
2022-12-31T09:53:18.920Z,0.90
2022-12-31T09:57:24.792Z,0.80
2022-12-31T10:02:02.375Z,0.80
2022-12-31T10:06:16.994Z,0.80
2022-12-31T10:10:23.819Z,0.50
2022-12-31T10:14:50.924Z,1.13
2022-12-31T10:19:50.575Z,0.70
2022-12-31T10:24:05.300Z,0.82
2022-12-31T10:28:25.987Z,0.70
2022-12-31T10:32:55.325Z,0.80
2022-12-31T10:37:10.380Z,0.75
2022-12-31T10:41:30.781Z,0.80
2022-12-31T10:46:16.238Z,0.50
2022-12-31T10:50:36.236Z,1.10
2022-12-31T10:59:10.148Z,0.90
2022-12-31T11:03:53.996Z,0.50
2022-12-31T11:08:25.318Z,0.52
2022-12-31T11:12:30.253Z,0.73
2022-12-31T11:16:35.266Z,0.63
2022-12-31T11:21:08.950Z,0.88
2022-12-31T11:25:10.919Z,0.73
2022-12-31T11:29:31.709Z,1.20
2022-12-31T11:33:52.470Z,0.68
2022-12-31T11:38:10.566Z,0.80
2022-12-31T11:42:32.199Z,0.82
2022-12-31T11:46:51.286Z,0.60
2022-12-31T11:51:15.210Z,0.60
2022-12-31T11:55:34.698Z,0.90
2022-12-31T11:59:36.697Z,0.60
2022-12-31T12:03:43.179Z,1.35
2022-12-31T12:07:45.423Z,0.90
2022-12-31T12:11:59.101Z,0.90
2022-12-31T12:16:03.176Z,1.00
2022-12-31T12:20:18.416Z,1.20
2022-12-31T12:24:26.065Z,1.30
2022-12-31T12:28:31.569Z,0.90
2022-12-31T12:32:33.780Z,0.90
2022-12-31T12:36:46.110Z,1.30
2022-12-31T12:41:12.325Z,1.42
2022-12-31T12:45:16.865Z,1.40
2022-12-31T12:49:26.178Z,0.70
2022-12-31T12:53:43.752Z,0.88
2022-12-31T13:01:53.361Z,1.30
2022-12-31T13:06:08.559Z,0.80
2022-12-31T13:10:43.167Z,1.00
2022-12-31T13:15:18.445Z,1.08
2022-12-31T13:19:43.642Z,1.10
2022-12-31T13:23:53.331Z,1.10
2022-12-31T13:28:00.325Z,1.23
2022-12-31T13:32:05.673Z,1.30
2022-12-31T13:36:10.418Z,1.45
2022-12-31T13:40:30.381Z,1.40
2022-12-31T13:44:37.823Z,1.20
2022-12-31T13:48:49.594Z,1.25
2022-12-31T13:53:00.244Z,1.10
2022-12-31T13:57:11.431Z,1.20
2022-12-31T14:01:22.224Z,1.10
2022-12-31T14:05:46.759Z,1.00
2022-12-31T14:09:49.230Z,1.25
2022-12-31T14:14:08.341Z,1.10
2022-12-31T14:18:21.046Z,1.23
2022-12-31T14:22:47.686Z,1.50
2022-12-31T14:26:54.941Z,1.40
2022-12-31T14:35:46.787Z,1.50
2022-12-31T14:40:06.190Z,1.20
2022-12-31T14:44:26.879Z,1.42
2022-12-31T14:49:00.930Z,1.20
2022-12-31T14:53:02.872Z,0.70
2022-12-31T14:58:01.653Z,0.90
2022-12-31T15:02:00.581Z,1.00
2022-12-31T15:06:12.554Z,0.85
2022-12-31T15:10:34.476Z,0.90
2022-12-31T15:14:37.761Z,0.90
2022-12-31T15:19:17.902Z,0.90
2022-12-31T15:23:23.484Z,1.08
2022-12-31T15:27:38.213Z,1.10
2022-12-31T15:31:46.767Z,0.88
2022-12-31T15:35:52.211Z,0.70
2022-12-31T15:40:17.664Z,0.85
2022-12-31T15:44:28.759Z,0.90
2022-12-31T15:49:01.957Z,1.50
2022-12-31T15:53:07.013Z,1.00
2022-12-31T15:57:18.983Z,0.95
2022-12-31T16:01:24.066Z,0.70
2022-12-31T16:05:27.398Z,0.70
2022-12-31T16:09:35.733Z,0.70
2022-12-31T16:13:44.629Z,0.82
2022-12-31T16:17:47.043Z,1.15
2022-12-31T16:21:56.003Z,1.17
2022-12-31T16:26:00.957Z,0.80
2022-12-31T16:30:19.122Z,0.80
2022-12-31T16:34:27.318Z,0.80
2022-12-31T16:38:35.014Z,0.80
2022-12-31T16:42:44.139Z,1.10
2022-12-31T16:46:47.419Z,0.80
2022-12-31T16:50:53.086Z,0.80
2022-12-31T16:54:57.011Z,0.73
2022-12-31T16:59:03.978Z,0.80
2022-12-31T17:03:17.667Z,0.90
2022-12-31T17:07:31.991Z,9.98
2022-12-31T17:11:54.603Z,0.70
2022-12-31T17:15:57.938Z,0.70
2022-12-31T17:20:03.067Z,0.70
2022-12-31T17:24:06.789Z,0.68
2022-12-31T17:28:41.384Z,0.57
2022-12-31T17:32:45.346Z,0.70
2022-12-31T17:36:54.310Z,0.90
2022-12-31T17:41:07.893Z,0.80
2022-12-31T17:45:21.016Z,0.57
2022-12-31T17:49:29.755Z,1.30
2022-12-31T17:53:31.936Z,0.90
2022-12-31T17:57:33.990Z,0.90
2022-12-31T18:01:36.199Z,1.13
2022-12-31T18:05:38.384Z,1.20
2022-12-31T18:09:40.433Z,0.80
2022-12-31T18:13:42.791Z,1.40
2022-12-31T18:17:44.894Z,1.05
2022-12-31T18:21:47.036Z,0.90
2022-12-31T18:25:49.446Z,1.20
2022-12-31T18:29:51.568Z,1.15
2022-12-31T18:33:55.864Z,0.98
2022-12-31T18:37:59.375Z,1.25
2022-12-31T18:42:02.307Z,0.90
2022-12-31T18:46:04.588Z,0.88
2022-12-31T18:50:09.464Z,1.10
2022-12-31T18:54:12.444Z,1.20
2022-12-31T18:58:14.850Z,0.75
2022-12-31T19:02:20.279Z,1.15
2022-12-31T19:06:22.666Z,1.35
2022-12-31T19:10:26.875Z,1.27
2022-12-31T19:14:30.677Z,1.50
2022-12-31T19:18:33.258Z,1.20
2022-12-31T19:22:35.334Z,1.50
2022-12-31T19:26:43.172Z,0.98
2022-12-31T19:30:46.365Z,0.70
2022-12-31T19:34:49.404Z,0.70
2022-12-31T19:38:51.881Z,1.70
2022-12-31T19:42:56.042Z,1.55
2022-12-31T19:47:00.465Z,1.88
2022-12-31T19:51:14.005Z,1.23
2022-12-31T19:55:20.769Z,1.27
2022-12-31T19:59:24.207Z,0.93
2022-12-31T20:03:29.916Z,1.37
2022-12-31T20:07:32.301Z,0.90
2022-12-31T20:11:34.316Z,0.90
2022-12-31T20:15:39.546Z,0.90
2022-12-31T20:19:41.559Z,0.90
2022-12-31T20:23:44.059Z,1.15
2022-12-31T20:27:46.068Z,1.10
2022-12-31T20:31:48.064Z,1.00
2022-12-31T20:35:51.163Z,1.15
2022-12-31T20:39:53.394Z,1.00
2022-12-31T20:43:55.477Z,1.10
2022-12-31T20:47:57.508Z,0.80
2022-12-31T20:51:59.567Z,1.25
2022-12-31T20:56:08.804Z,1.05
2022-12-31T21:00:12.415Z,8.02
2022-12-31T21:04:14.723Z,1.00
2022-12-31T21:08:17.383Z,1.10
2022-12-31T21:12:38.201Z,1.00
2022-12-31T21:16:40.316Z,1.30
2022-12-31T21:20:47.011Z,1.13
2022-12-31T21:24:48.999Z,1.17
2022-12-31T21:28:52.382Z,1.10
2022-12-31T21:32:54.406Z,1.20
2022-12-31T21:36:56.405Z,1.40
2022-12-31T21:41:02.938Z,1.40
2022-12-31T21:45:05.608Z,1.10
2022-12-31T21:49:07.605Z,1.60
2022-12-31T21:53:09.606Z,1.40
2022-12-31T21:57:11.728Z,1.40
2022-12-31T22:01:39.884Z,1.10
2022-12-31T22:05:52.814Z,1.38
2022-12-31T22:09:54.928Z,1.40
2022-12-31T22:13:56.952Z,1.70
2022-12-31T22:17:58.957Z,1.38
2022-12-31T22:22:00.985Z,1.58
2022-12-31T22:26:04.464Z,1.40
2022-12-31T22:30:07.309Z,1.40
2022-12-31T22:34:09.342Z,1.20
2022-12-31T22:38:12.304Z,1.20
2022-12-31T22:42:14.541Z,1.40
2022-12-31T22:46:19.788Z,0.90
2022-12-31T22:50:21.844Z,1.17
2022-12-31T22:54:23.930Z,1.60
2022-12-31T22:58:26.392Z,41.30
2022-12-31T23:02:28.440Z,31.20
2022-12-31T23:06:30.621Z,58.97
2022-12-31T23:10:51.465Z,19.70
2022-12-31T23:15:12.335Z,8.90
2022-12-31T23:19:34.913Z,13.82
2022-12-31T23:23:36.948Z,5.75
2022-12-31T23:27:38.955Z,5.13
2022-12-31T23:31:40.978Z,8.98
2022-12-31T23:35:43.538Z,4.78
2022-12-31T23:39:45.557Z,3.53
2022-12-31T23:43:47.853Z,3.80
2022-12-31T23:47:49.907Z,3.88
2022-12-31T23:51:51.921Z,3.10
2022-12-31T23:55:54.130Z,3.45
2022-12-31T23:59:56.144Z,7.43
